createdAt,value
2022-12-13T00:02:11.145Z,5.87
2022-12-13T00:04:38.250Z,6.10
2022-12-13T00:07:05.369Z,5.47
2022-12-13T00:09:32.473Z,6.17
2022-12-13T00:11:59.617Z,6.53
2022-12-13T00:14:26.767Z,6.10
2022-12-13T00:16:53.906Z,6.30
2022-12-13T00:19:21.338Z,7.10
2022-12-13T00:21:48.509Z,5.20
2022-12-13T00:24:16.071Z,5.77
2022-12-13T00:26:43.209Z,5.17
2022-12-13T00:29:11.277Z,5.33
2022-12-13T00:31:59.942Z,5.93
2022-12-13T00:34:25.900Z,5.40
2022-12-13T00:36:54.476Z,4.67
2022-12-13T00:39:21.556Z,5.47
2022-12-13T00:41:48.661Z,5.33
2022-12-13T00:44:15.908Z,6.30
2022-12-13T00:46:43.437Z,5.77
2022-12-13T00:49:10.747Z,5.33
2022-12-13T00:51:37.998Z,5.80
2022-12-13T00:54:05.234Z,5.63
2022-12-13T00:56:32.688Z,5.13
2022-12-13T00:58:59.850Z,6.00
2022-12-13T01:01:27.748Z,5.93
2022-12-13T01:03:55.301Z,5.13
2022-12-13T01:06:23.676Z,5.20
2022-12-13T01:08:50.768Z,5.43
2022-12-13T01:11:18.385Z,6.13
2022-12-13T01:13:45.627Z,5.97
2022-12-13T01:16:12.954Z,6.10
2022-12-13T01:18:40.327Z,5.53
2022-12-13T01:21:08.309Z,5.47
2022-12-13T01:23:35.521Z,5.73
2022-12-13T01:26:04.347Z,5.77
2022-12-13T01:28:31.537Z,6.13
2022-12-13T01:30:59.742Z,6.13
2022-12-13T01:33:27.110Z,4.70
2022-12-13T01:35:54.282Z,5.97
2022-12-13T01:38:21.469Z,5.83
2022-12-13T01:40:58.968Z,6.03
2022-12-13T01:43:30.414Z,6.33
2022-12-13T01:45:57.597Z,5.40
2022-12-13T01:48:25.899Z,5.03
2022-12-13T01:50:53.603Z,5.40
2022-12-13T01:53:22.344Z,5.10
2022-12-13T01:55:51.431Z,6.20
2022-12-13T01:58:18.554Z,5.60
2022-12-13T02:00:45.674Z,5.40
2022-12-13T02:03:21.430Z,5.63
2022-12-13T02:05:52.169Z,5.50
2022-12-13T02:08:19.690Z,5.30
2022-12-13T02:10:46.901Z,4.60
2022-12-13T02:13:14.097Z,4.97
2022-12-13T02:16:13.484Z,5.17
2022-12-13T02:18:49.567Z,5.20
2022-12-13T02:21:24.179Z,5.33
2022-12-13T02:24:08.949Z,5.47
2022-12-13T02:26:45.009Z,5.10
2022-12-13T02:29:30.888Z,5.33
2022-12-13T02:32:05.377Z,5.23
2022-12-13T02:34:37.470Z,4.83
2022-12-13T02:37:18.152Z,4.30
2022-12-13T02:39:48.281Z,4.37
2022-12-13T02:42:21.401Z,4.67
2022-12-13T02:44:58.569Z,4.43
2022-12-13T02:47:26.335Z,4.67
2022-12-13T02:49:57.708Z,4.80
2022-12-13T02:52:25.874Z,4.73
2022-12-13T02:54:54.887Z,5.10
2022-12-13T02:57:37.923Z,5.50
2022-12-13T03:00:15.620Z,4.67
2022-12-13T03:02:43.692Z,5.30
2022-12-13T03:05:29.492Z,6.07
2022-12-13T03:08:08.567Z,6.60
2022-12-13T03:11:04.799Z,7.60
2022-12-13T03:13:38.010Z,10.40
2022-12-13T03:16:10.980Z,8.27
2022-12-13T03:18:38.126Z,8.23
2022-12-13T03:21:05.907Z,9.40
2022-12-13T03:23:33.293Z,8.43
2022-12-13T03:26:01.213Z,8.47
2022-12-13T03:28:28.328Z,6.33
2022-12-13T03:30:55.529Z,8.73
2022-12-13T03:33:22.779Z,8.00
2022-12-13T03:35:49.875Z,9.37
2022-12-13T03:38:22.854Z,9.83
2022-12-13T03:41:10.903Z,9.33
2022-12-13T03:43:38.861Z,6.33
2022-12-13T03:46:06.180Z,8.60
2022-12-13T03:48:33.408Z,6.27
2022-12-13T03:51:00.510Z,5.67
2022-12-13T03:53:33.261Z,5.70
2022-12-13T03:56:01.765Z,5.40
2022-12-13T03:58:36.524Z,5.23
2022-12-13T04:01:08.021Z,6.30
2022-12-13T04:03:35.395Z,6.43
2022-12-13T04:06:02.537Z,5.20
2022-12-13T04:08:29.695Z,5.30
2022-12-13T04:10:56.819Z,5.27
2022-12-13T04:13:32.847Z,5.10
2022-12-13T04:16:00.256Z,4.77
2022-12-13T04:18:27.452Z,6.13
2022-12-13T04:20:54.584Z,7.70
2022-12-13T04:23:21.660Z,8.17
2022-12-13T04:25:48.748Z,7.20
2022-12-13T04:28:21.833Z,5.90
2022-12-13T04:30:52.735Z,5.23
2022-12-13T04:33:21.213Z,6.13
2022-12-13T04:35:48.656Z,5.43
2022-12-13T04:38:15.822Z,5.20
2022-12-13T04:40:42.954Z,5.10
2022-12-13T04:43:10.089Z,4.60
2022-12-13T04:45:37.208Z,5.50
2022-12-13T04:48:04.584Z,5.50
2022-12-13T04:50:31.692Z,5.43
2022-12-13T04:52:58.840Z,4.33
2022-12-13T04:55:25.959Z,5.10
2022-12-13T04:57:53.029Z,4.63
2022-12-13T05:00:22.123Z,4.13
2022-12-13T05:02:49.348Z,4.97
2022-12-13T05:05:16.874Z,4.47
2022-12-13T05:07:44.292Z,4.70
2022-12-13T05:10:12.025Z,4.37
2022-12-13T05:12:39.146Z,5.33
2022-12-13T05:15:06.577Z,6.17
2022-12-13T05:17:33.886Z,5.87
2022-12-13T05:20:01.040Z,6.77
2022-12-13T05:22:28.163Z,6.50
2022-12-13T05:24:55.287Z,6.10
2022-12-13T05:27:24.615Z,6.97
2022-12-13T05:30:02.315Z,8.23
2022-12-13T05:32:33.851Z,7.67
2022-12-13T05:35:11.603Z,7.20
2022-12-13T05:37:38.742Z,6.80
2022-12-13T05:40:06.213Z,6.23
2022-12-13T05:42:33.299Z,7.03
2022-12-13T05:45:00.449Z,6.03
2022-12-13T05:47:27.524Z,7.93
2022-12-13T05:49:54.610Z,7.03
2022-12-13T05:52:22.291Z,9.00
2022-12-13T05:55:13.047Z,11.47
2022-12-13T05:57:40.224Z,13.17
2022-12-13T06:00:29.084Z,12.10
2022-12-13T06:02:55.372Z,9.57
2022-12-13T06:05:22.502Z,12.83
2022-12-13T06:07:53.615Z,11.83
2022-12-13T06:10:23.888Z,10.03
2022-12-13T06:12:50.983Z,13.93
2022-12-13T06:15:22.238Z,9.27
2022-12-13T06:17:49.930Z,8.00
2022-12-13T06:20:24.166Z,5.30
2022-12-13T06:22:52.790Z,6.17
2022-12-13T06:25:31.092Z,7.50
2022-12-13T06:27:59.006Z,6.67
2022-12-13T06:30:28.366Z,6.90
2022-12-13T06:32:55.511Z,6.37
2022-12-13T06:35:28.547Z,6.83
2022-12-13T06:38:00.875Z,6.67
2022-12-13T06:40:29.363Z,8.40
2022-12-13T06:42:56.455Z,8.40
2022-12-13T06:45:23.558Z,7.57
2022-12-13T06:47:50.664Z,8.57
2022-12-13T06:50:17.774Z,8.23
2022-12-13T06:52:46.325Z,13.83
2022-12-13T06:55:13.574Z,10.87
2022-12-13T06:57:41.259Z,10.53
2022-12-13T07:00:09.047Z,12.20
2022-12-13T07:02:36.299Z,10.97
2022-12-13T07:05:03.497Z,9.20
2022-12-13T07:07:30.997Z,11.00
2022-12-13T07:09:58.119Z,10.80
2022-12-13T07:12:25.279Z,14.60
2022-12-13T07:14:52.352Z,19.20
2022-12-13T07:17:32.074Z,19.47
2022-12-13T07:20:01.600Z,23.23
2022-12-13T07:22:28.824Z,23.37
2022-12-13T07:24:56.213Z,25.50
2022-12-13T07:27:23.296Z,24.93
2022-12-13T07:29:50.413Z,25.57
2022-12-13T07:32:17.540Z,22.07
2022-12-13T07:34:44.692Z,22.90
2022-12-13T07:37:30.189Z,22.10
2022-12-13T07:40:03.418Z,24.13
2022-12-13T07:42:31.712Z,23.83
2022-12-13T07:44:58.788Z,21.60
2022-12-13T07:47:29.598Z,27.03
2022-12-13T07:49:56.731Z,24.90
2022-12-13T07:52:23.841Z,25.43
2022-12-13T07:54:51.030Z,23.83
2022-12-13T07:57:18.137Z,25.33
2022-12-13T07:59:45.237Z,25.97
2022-12-13T08:02:13.347Z,23.63
2022-12-13T08:04:40.684Z,28.47
2022-12-13T08:07:08.997Z,26.57
2022-12-13T08:09:36.329Z,24.47
2022-12-13T08:12:03.557Z,23.80
2022-12-13T08:14:31.190Z,21.53
2022-12-13T08:16:58.320Z,13.50
2022-12-13T08:19:25.434Z,10.30
2022-12-13T08:21:55.221Z,10.70
2022-12-13T08:24:27.609Z,18.33
2022-12-13T08:26:55.111Z,11.10
2022-12-13T08:29:33.299Z,9.90
2022-12-13T08:32:02.913Z,14.77
2022-12-13T08:34:30.166Z,12.80
2022-12-13T08:37:01.457Z,13.57
2022-12-13T08:39:37.226Z,12.20
2022-12-13T08:42:16.655Z,11.33
2022-12-13T08:44:51.456Z,10.43
2022-12-13T08:47:25.123Z,8.83
2022-12-13T08:50:03.983Z,7.63
2022-12-13T08:52:39.758Z,9.30
2022-12-13T08:55:08.394Z,8.40
2022-12-13T08:57:36.896Z,7.63
2022-12-13T09:00:05.329Z,7.67
2022-12-13T09:02:37.983Z,7.53
2022-12-13T09:05:07.021Z,8.27
2022-12-13T09:07:35.868Z,8.13
2022-12-13T09:10:07.156Z,8.13
2022-12-13T09:12:50.364Z,9.03
2022-12-13T09:15:22.159Z,8.07
2022-12-13T09:17:52.656Z,9.40
2022-12-13T09:20:28.331Z,9.80
2022-12-13T09:23:01.168Z,9.90
2022-12-13T09:25:37.187Z,10.43
2022-12-13T09:28:06.338Z,12.33
2022-12-13T09:30:33.429Z,10.40
2022-12-13T09:33:29.288Z,8.73
2022-12-13T09:35:47.607Z,6.13
2022-12-13T09:38:14.699Z,7.90
2022-12-13T09:40:41.954Z,8.27
2022-12-13T09:43:12.593Z,8.97
2022-12-13T09:45:42.987Z,7.80
2022-12-13T09:48:13.523Z,8.60
2022-12-13T09:50:46.412Z,8.37
2022-12-13T09:53:22.019Z,7.33
2022-12-13T09:55:49.807Z,5.30
2022-12-13T09:58:29.772Z,6.13
2022-12-13T10:00:56.970Z,5.50
2022-12-13T10:03:24.566Z,4.97
2022-12-13T10:05:59.071Z,5.07
2022-12-13T10:08:28.844Z,5.47
2022-12-13T10:10:55.975Z,5.70
2022-12-13T10:13:41.532Z,6.33
2022-12-13T10:16:25.019Z,6.67
2022-12-13T10:18:52.260Z,5.27
2022-12-13T10:21:39.369Z,5.37
2022-12-13T10:24:25.856Z,5.90
2022-12-13T10:26:54.892Z,5.73
2022-12-13T10:29:22.080Z,6.00
2022-12-13T10:31:50.028Z,6.77
2022-12-13T10:34:24.535Z,6.43
2022-12-13T10:36:52.028Z,6.10
2022-12-13T10:39:20.699Z,6.60
2022-12-13T10:41:47.893Z,5.60
2022-12-13T10:44:25.503Z,6.00
2022-12-13T10:47:03.596Z,6.10
2022-12-13T10:49:36.440Z,5.53
2022-12-13T10:52:03.554Z,5.37
2022-12-13T10:54:38.764Z,6.13
2022-12-13T10:57:15.687Z,10.37
2022-12-13T10:59:42.851Z,11.97
2022-12-13T11:02:28.984Z,7.33
2022-12-13T11:04:58.092Z,7.70
2022-12-13T11:07:28.029Z,7.10
2022-12-13T11:09:55.147Z,8.13
2022-12-13T11:12:23.465Z,8.03
2022-12-13T11:14:50.592Z,10.47
2022-12-13T11:17:18.115Z,15.83
2022-12-13T11:19:46.213Z,13.23
2022-12-13T11:22:27.023Z,10.93
2022-12-13T11:25:04.063Z,10.53
2022-12-13T11:27:37.196Z,9.83
2022-12-13T11:30:09.474Z,9.87
2022-12-13T11:32:56.091Z,8.30
2022-12-13T11:35:43.997Z,8.20
2022-12-13T11:38:20.248Z,9.23
2022-12-13T11:40:47.967Z,20.50
2022-12-13T11:43:18.227Z,15.90
2022-12-13T11:45:46.687Z,10.67
2022-12-13T11:48:19.945Z,17.77
2022-12-13T11:50:48.028Z,21.57
2022-12-13T11:53:29.294Z,15.10
2022-12-13T11:56:02.750Z,16.67
2022-12-13T11:59:04.712Z,15.37
2022-12-13T12:01:40.608Z,11.13
2022-12-13T12:04:11.217Z,10.73
2022-12-13T12:06:39.742Z,6.87
2022-12-13T12:09:07.244Z,6.37
2022-12-13T12:11:43.139Z,8.10
2022-12-13T12:14:11.565Z,8.87
2022-12-13T12:16:43.599Z,11.53
2022-12-13T12:19:17.528Z,5.47
2022-12-13T12:24:47.444Z,5.80
2022-12-13T12:27:30.180Z,9.70
2022-12-13T12:30:01.195Z,5.30
2022-12-13T12:32:33.160Z,6.03
2022-12-13T12:35:03.319Z,5.20
2022-12-13T12:37:33.532Z,6.13
2022-12-13T12:40:24.549Z,5.90
2022-12-13T12:45:56.912Z,9.27
2022-12-13T12:51:12.577Z,5.70
2022-12-13T12:53:44.373Z,5.27
2022-12-13T12:56:15.353Z,6.27
2022-12-13T12:58:48.586Z,9.60
2022-12-13T13:01:15.788Z,8.83
2022-12-13T13:03:43.168Z,9.30
2022-12-13T13:06:14.991Z,10.70
2022-12-13T13:08:42.080Z,8.63
2022-12-13T13:11:24.439Z,36.73
2022-12-13T13:14:03.276Z,25.40
2022-12-13T13:16:33.680Z,10.17
2022-12-13T13:19:01.615Z,10.10
2022-12-13T13:21:32.232Z,9.03
2022-12-13T13:24:02.388Z,8.20
2022-12-13T13:26:35.905Z,6.37
2022-12-13T13:29:27.623Z,6.57
2022-12-13T13:32:01.921Z,6.20
2022-12-13T13:34:30.381Z,6.73
2022-12-13T13:36:57.945Z,8.03
2022-12-13T13:39:45.321Z,7.97
2022-12-13T13:42:15.474Z,7.07
2022-12-13T13:44:54.556Z,7.30
2022-12-13T13:47:24.656Z,7.33
2022-12-13T13:50:01.773Z,7.50
2022-12-13T13:52:44.868Z,6.83
2022-12-13T13:55:14.751Z,6.63
2022-12-13T13:58:09.276Z,5.83
2022-12-13T14:00:42.963Z,6.37
2022-12-13T14:03:32.972Z,7.73
2022-12-13T14:06:00.263Z,7.10
2022-12-13T14:08:32.389Z,7.03
2022-12-13T14:11:08.633Z,6.50
2022-12-13T14:13:40.006Z,6.37
2022-12-13T14:16:12.141Z,6.10
2022-12-13T14:18:59.226Z,6.37
2022-12-13T14:21:29.389Z,5.83
2022-12-13T14:24:15.103Z,5.23
2022-12-13T14:26:51.406Z,5.20
2022-12-13T14:29:20.717Z,17.70
2022-12-13T14:31:48.164Z,11.47
2022-12-13T14:34:20.424Z,13.87
2022-12-13T14:36:49.716Z,25.63
2022-12-13T14:39:24.780Z,29.37
2022-12-13T14:41:56.739Z,30.73
2022-12-13T14:44:29.302Z,35.53
2022-12-13T14:46:56.590Z,32.07
2022-12-13T14:49:24.436Z,45.80
2022-12-13T14:52:00.934Z,51.30
2022-12-13T14:54:28.449Z,48.97
2022-12-13T14:56:59.421Z,47.30
2022-12-13T14:59:26.780Z,46.27
2022-12-13T15:01:54.795Z,53.33
2022-12-13T15:04:21.998Z,76.23
2022-12-13T15:06:49.720Z,59.10
2022-12-13T15:09:16.917Z,48.80
2022-12-13T15:11:44.643Z,43.20
2022-12-13T15:14:15.943Z,49.47
2022-12-13T15:16:47.367Z,71.97
2022-12-13T15:19:14.566Z,55.47
2022-12-13T15:22:02.089Z,54.03
2022-12-13T15:24:30.300Z,63.03
2022-12-13T15:26:58.003Z,64.30
2022-12-13T15:29:25.845Z,67.70
2022-12-13T15:31:54.332Z,62.33
2022-12-13T15:34:28.768Z,71.70
2022-12-13T15:36:57.608Z,79.47
2022-12-13T15:39:27.914Z,77.93
2022-12-13T15:41:55.398Z,73.37
2022-12-13T15:44:36.655Z,86.23
2022-12-13T15:47:05.158Z,99.93
2022-12-13T15:49:33.795Z,68.10
2022-12-13T15:52:02.280Z,57.57
2022-12-13T15:54:29.687Z,68.53
2022-12-13T15:56:56.832Z,75.80
2022-12-13T15:59:28.058Z,68.33
2022-12-13T16:01:58.469Z,70.13
2022-12-13T16:04:28.185Z,66.57
2022-12-13T16:06:58.090Z,71.53
2022-12-13T16:09:26.492Z,92.73
2022-12-13T16:11:57.526Z,90.70
2022-12-13T16:14:27.836Z,80.07
2022-12-13T16:16:55.377Z,69.67
2022-12-13T16:19:23.075Z,70.10
2022-12-13T16:21:50.299Z,65.63
2022-12-13T16:24:17.451Z,96.57
2022-12-13T16:26:45.397Z,83.00
2022-12-13T16:29:13.020Z,82.13
2022-12-13T16:31:41.572Z,72.17
2022-12-13T16:34:09.036Z,70.77
2022-12-13T16:36:36.347Z,63.10
2022-12-13T16:39:06.519Z,49.70
2022-12-13T16:41:41.573Z,59.13
2022-12-13T16:44:09.353Z,65.67
2022-12-13T16:47:14.234Z,71.47
2022-12-13T16:49:27.056Z,78.50
2022-12-13T16:51:54.259Z,79.60
2022-12-13T16:54:21.719Z,75.53
2022-12-13T16:56:48.971Z,69.90
2022-12-13T16:59:16.823Z,72.17
2022-12-13T17:01:44.193Z,63.20
2022-12-13T17:04:19.644Z,65.70
2022-12-13T17:06:47.082Z,55.17
2022-12-13T17:09:14.211Z,57.10
2022-12-13T17:11:41.412Z,49.83
2022-12-13T17:14:08.713Z,63.90
2022-12-13T17:16:35.865Z,60.00
2022-12-13T17:19:03.041Z,39.60
2022-12-13T17:21:30.228Z,32.50
2022-12-13T17:23:57.788Z,54.33
2022-12-13T17:26:24.998Z,89.33
2022-12-13T17:28:52.142Z,107.40
2022-12-13T17:31:19.400Z,90.17
2022-12-13T17:33:46.582Z,98.17
2022-12-13T17:36:14.313Z,82.37
2022-12-13T17:38:45.659Z,98.60
2022-12-13T17:41:13.245Z,112.27
2022-12-13T17:43:41.091Z,110.47
2022-12-13T17:46:10.292Z,100.53
2022-12-13T17:48:40.887Z,97.83
2022-12-13T17:51:11.728Z,82.40
2022-12-13T17:53:39.172Z,70.77
2022-12-13T17:56:07.737Z,62.00
2022-12-13T17:58:35.414Z,58.70
2022-12-13T18:01:12.521Z,65.20
2022-12-13T18:03:39.694Z,57.53
2022-12-13T18:06:07.218Z,64.43
2022-12-13T18:08:38.883Z,78.43
2022-12-13T18:11:31.881Z,94.53
2022-12-13T18:13:54.550Z,95.43
2022-12-13T18:16:22.520Z,99.23
2022-12-13T18:18:55.011Z,75.87
2022-12-13T18:21:23.011Z,75.60
2022-12-13T18:23:55.378Z,70.33
2022-12-13T18:26:25.040Z,65.80
2022-12-13T18:28:52.375Z,69.83
2022-12-13T18:31:23.157Z,54.37
2022-12-13T18:33:50.933Z,47.67
2022-12-13T18:36:18.127Z,50.70
2022-12-13T18:38:45.267Z,49.57
2022-12-13T18:41:14.874Z,47.97
2022-12-13T18:43:42.532Z,47.97
2022-12-13T18:46:10.088Z,45.70
2022-12-13T18:48:37.332Z,50.23
2022-12-13T18:51:05.459Z,51.80
2022-12-13T18:53:32.814Z,44.30
2022-12-13T18:56:04.801Z,41.73
2022-12-13T18:58:35.718Z,45.90
2022-12-13T19:01:03.215Z,53.57
2022-12-13T19:03:30.933Z,62.67
2022-12-13T19:05:58.939Z,59.87
2022-12-13T19:08:26.412Z,62.30
2022-12-13T19:10:54.269Z,68.50
2022-12-13T19:13:22.972Z,67.97
2022-12-13T19:15:51.060Z,66.77
2022-12-13T19:18:18.315Z,69.40
2022-12-13T19:20:48.692Z,63.33
2022-12-13T19:23:16.198Z,66.70
2022-12-13T19:25:43.358Z,68.27
2022-12-13T19:28:11.566Z,68.83
2022-12-13T19:30:39.066Z,63.67
2022-12-13T19:33:07.884Z,67.40
2022-12-13T19:35:35.384Z,59.77
2022-12-13T19:38:02.607Z,75.23
2022-12-13T19:40:29.852Z,69.37
2022-12-13T19:42:57.049Z,74.63
2022-12-13T19:45:24.263Z,72.37
2022-12-13T19:47:51.498Z,69.20
2022-12-13T19:50:18.730Z,74.33
2022-12-13T19:52:46.384Z,77.97
2022-12-13T19:55:14.374Z,102.10
2022-12-13T19:57:41.668Z,101.50
2022-12-13T20:00:09.260Z,94.07
2022-12-13T20:02:36.776Z,89.83
2022-12-13T20:05:04.150Z,85.67
2022-12-13T20:07:31.375Z,89.60
2022-12-13T20:09:58.558Z,80.70
2022-12-13T20:12:25.753Z,82.47
2022-12-13T20:14:52.915Z,90.03
2022-12-13T20:17:20.183Z,82.83
2022-12-13T20:19:47.475Z,75.87
2022-12-13T20:22:15.606Z,98.37
2022-12-13T20:24:43.133Z,113.20
2022-12-13T20:27:11.812Z,167.23
2022-12-13T20:29:39.017Z,126.33
2022-12-13T20:32:06.354Z,121.77
2022-12-13T20:34:34.414Z,131.43
2022-12-13T20:37:01.585Z,152.00
2022-12-13T20:39:28.944Z,134.83
2022-12-13T20:41:56.150Z,130.07
2022-12-13T20:44:23.431Z,118.57
2022-12-13T20:46:50.706Z,110.00
2022-12-13T20:49:17.928Z,122.30
2022-12-13T20:51:45.140Z,115.23
2022-12-13T20:54:12.482Z,114.20
2022-12-13T20:56:39.788Z,124.60
2022-12-13T20:59:07.633Z,114.17
2022-12-13T21:01:36.146Z,118.93
2022-12-13T21:04:04.906Z,109.63
2022-12-13T21:06:32.703Z,114.17
2022-12-13T21:09:02.691Z,108.77
2022-12-13T21:11:40.171Z,104.83
2022-12-13T21:14:13.629Z,120.33
2022-12-13T21:16:45.914Z,112.77
2022-12-13T21:19:16.976Z,110.97
2022-12-13T21:21:44.183Z,99.57
2022-12-13T21:24:13.548Z,95.57
2022-12-13T21:26:40.996Z,87.77
2022-12-13T21:29:08.542Z,88.17
2022-12-13T21:31:36.223Z,81.60
2022-12-13T21:34:03.472Z,80.53
2022-12-13T21:36:31.332Z,78.57
2022-12-13T21:39:05.882Z,83.07
2022-12-13T21:41:33.082Z,71.70
2022-12-13T21:44:00.682Z,72.33
2022-12-13T21:46:41.370Z,76.47
2022-12-13T21:49:15.609Z,79.50
2022-12-13T21:51:47.564Z,77.87
2022-12-13T21:54:15.265Z,79.80
2022-12-13T21:57:17.859Z,75.23
2022-12-13T21:59:45.123Z,80.53
2022-12-13T22:02:16.297Z,84.80
2022-12-13T22:04:43.720Z,76.50
2022-12-13T22:07:11.637Z,75.60
2022-12-13T22:09:38.845Z,70.17
2022-12-13T22:12:09.657Z,73.10
2022-12-13T22:14:37.226Z,70.57
2022-12-13T22:17:04.375Z,62.27
2022-12-13T22:19:31.614Z,58.83
2022-12-13T22:21:58.824Z,56.27
2022-12-13T22:24:26.035Z,60.77
2022-12-13T22:26:53.256Z,61.53
2022-12-13T22:29:20.440Z,59.30
2022-12-13T22:31:48.892Z,64.63
2022-12-13T22:34:16.383Z,66.57
2022-12-13T22:36:43.589Z,57.80
2022-12-13T22:39:17.382Z,56.87
2022-12-13T22:41:45.109Z,55.17
2022-12-13T22:44:12.349Z,63.17
2022-12-13T22:46:39.574Z,68.67
2022-12-13T22:49:06.719Z,58.90
2022-12-13T22:51:33.917Z,65.00
2022-12-13T22:54:01.275Z,60.90
2022-12-13T22:56:28.520Z,60.83
2022-12-13T22:58:55.939Z,54.43
2022-12-13T23:01:24.441Z,61.83
2022-12-13T23:03:51.678Z,59.20
2022-12-13T23:06:19.833Z,57.07
2022-12-13T23:08:50.427Z,50.90
2022-12-13T23:11:36.253Z,50.67
2022-12-13T23:14:04.074Z,58.53
2022-12-13T23:16:31.969Z,53.27
2022-12-13T23:19:24.075Z,51.47
2022-12-13T23:21:48.416Z,57.07
2022-12-13T23:24:16.012Z,52.40
2022-12-13T23:26:43.259Z,47.67
2022-12-13T23:29:10.897Z,47.10
2022-12-13T23:31:56.928Z,59.73
2022-12-13T23:34:24.087Z,62.80
2022-12-13T23:36:51.265Z,52.87
2022-12-13T23:39:18.470Z,54.07
2022-12-13T23:41:45.667Z,57.50
2022-12-13T23:44:12.907Z,61.40
2022-12-13T23:46:40.060Z,67.73
2022-12-13T23:49:07.484Z,57.40
2022-12-13T23:51:34.948Z,66.87
2022-12-13T23:54:02.133Z,65.33
2022-12-13T23:56:29.774Z,73.03
2022-12-13T23:58:57.076Z,64.97
